Nanson, North Dakota
Current Conditions -  °F | °C
As of 12:35 PM on Sunday 21 Dec 2014 (Local Time) from KRUG Reporting Station
Few Clouds Few Clouds  
Wind Chill: 18°   Ceiling: Unl
Heat Index: 28°   Visibility: 10mi
Dew Point: 28°   Wind: 13mph
Humidity: 100%   Direction: 120°ESE
Pressure: 29.5"   Gusts: NA
Location:  48.632°N, 99.9505°W
Report Text: KRUG 211835Z AUTO 12011KT 10SM FEW095 M02/M02 A2950 RMK AO2
Loading
Personal Weather Stations






























Interactive Weather Map New forecast layout! Learn more

10-Day Weather Forecast

Advertisements
Track Severe Weather on mobile